Bookmark and Share
Track history (hours):
 

Northern Highway

Last reported at 2014-Apr-16 16:22 UTC. Time now 2014-Apr-19 22:12 UTC.
Position N 33°57' E 128°17'.

Length 188 m; draft 7.1 m.

Type: Cargo ship. MMSI: 371608000.

NotesDate/timePositionNaut miles runAvg speedWind from/ knotsBaromVisibWave heightAir tempDewpointWater temp
2014-Apr-16 16:22N 33°57' E 128°17'36516.5
2014-Apr-15 18:16N 30°32' E 122°20'912.7
2014-Apr-15 17:33N 30°34' E 122°10'8 7.8
2014-Apr-15 16:33N 30°38' E 122°02'1 0.0
2014-Apr-15 03:33N 30°38' E 122°03'1211.4
2014-Apr-15 02:32N 30°33' E 122°15'4 4.5
2014-Apr-15 01:32N 30°33' E 122°20'1211.6
2014-Apr-15 00:29N 30°31' E 122°34'1313.5
2014-Apr-14 23:29N 30°26' E 122°49'1212.7
2014-Apr-14 22:32N 30°21' E 123°02'1515.6
2014-Apr-14 21:34N 30°21' E 123°19'9215.4
2014-Apr-14 15:34N 30°25' E 125°06'1615.8
2014-Apr-14 14:34N 30°26' E 125°24'74516.6
2014-Apr-12 17:33N 34°46' E 139°13'1616.4
2014-Apr-12 16:33N 34°58' E 139°27'1616.2
2014-Apr-12 15:33N 35°07' E 139°44'1211.9
2014-Apr-12 14:33N 35°19' E 139°44'9 8.7
2014-Apr-12 13:33N 35°27' E 139°41'0 0.0
2014-Apr-12 12:32N 35°27' E 139°41'0 0.0
2014-Apr-12 11:32N 35°27' E 139°41'0 0.0
2014-Apr-12 10:32N 35°27' E 139°41'0 0.0
2014-Apr-12 09:32N 35°27' E 139°41'0 0.0
2014-Apr-12 08:32N 35°27' E 139°41'0 0.0
2014-Apr-12 07:32N 35°27' E 139°41'0 0.0
2014-Apr-12 06:32N 35°27' E 139°41'0 0.0
2014-Apr-12 05:32N 35°27' E 139°41'2 1.6
2014-Apr-12 04:33N 35°26' E 139°43'10 9.6
2014-Apr-12 03:33N 35°17' E 139°46'9 9.3
2014-Apr-12 02:33N 35°07' E 139°46'8 8.2
2014-Apr-12 01:33N 35°00' E 139°42'1613.3
2014-Apr-12 00:23N 34°50' E 139°56'1416.3
2014-Apr-11 23:33N 34°47' E 140°12'  

Dump ship's entire track history

sailing weather and tide predictions

Northern Highway — 3EVE6 — position and weather